sensor_id;sensor_type;location;lat;lon;timestamp;P1;durP1;ratioP1;P2;durP2;ratioP2
805;SDS011;385;48.502;9.230;2022-07-30T00:02:09;50.40;;;6.83;;
805;SDS011;385;48.502;9.230;2022-07-30T00:04:37;51.57;;;6.97;;
805;SDS011;385;48.502;9.230;2022-07-30T00:07:04;50.13;;;6.80;;
805;SDS011;385;48.502;9.230;2022-07-30T00:09:31;54.90;;;6.80;;
805;SDS011;385;48.502;9.230;2022-07-30T00:11:59;47.77;;;7.20;;
805;SDS011;385;48.502;9.230;2022-07-30T00:14:26;54.10;;;6.80;;
805;SDS011;385;48.502;9.230;2022-07-30T00:16:54;50.00;;;6.30;;
805;SDS011;385;48.502;9.230;2022-07-30T00:19:21;55.20;;;7.33;;
805;SDS011;385;48.502;9.230;2022-07-30T00:21:48;54.20;;;7.30;;
805;SDS011;385;48.502;9.230;2022-07-30T00:24:15;52.83;;;6.97;;
805;SDS011;385;48.502;9.230;2022-07-30T00:26:42;62.77;;;7.33;;
805;SDS011;385;48.502;9.230;2022-07-30T00:29:10;57.50;;;7.50;;
805;SDS011;385;48.502;9.230;2022-07-30T00:31:38;61.97;;;7.90;;
805;SDS011;385;48.502;9.230;2022-07-30T00:34:05;48.50;;;7.33;;
805;SDS011;385;48.502;9.230;2022-07-30T00:36:32;52.33;;;6.90;;
805;SDS011;385;48.502;9.230;2022-07-30T00:38:59;47.73;;;6.80;;
805;SDS011;385;48.502;9.230;2022-07-30T00:41:26;51.23;;;7.13;;
805;SDS011;385;48.502;9.230;2022-07-30T00:43:54;51.03;;;6.87;;
805;SDS011;385;48.502;9.230;2022-07-30T00:46:22;50.50;;;6.70;;
805;SDS011;385;48.502;9.230;2022-07-30T00:48:49;51.83;;;7.27;;
805;SDS011;385;48.502;9.230;2022-07-30T00:51:16;51.17;;;6.80;;
805;SDS011;385;48.502;9.230;2022-07-30T00:53:43;68.57;;;7.90;;
805;SDS011;385;48.502;9.230;2022-07-30T00:56:10;77.47;;;8.17;;
805;SDS011;385;48.502;9.230;2022-07-30T00:58:38;68.03;;;7.63;;
805;SDS011;385;48.502;9.230;2022-07-30T01:01:05;62.43;;;7.53;;
805;SDS011;385;48.502;9.230;2022-07-30T01:03:33;64.87;;;7.20;;
805;SDS011;385;48.502;9.230;2022-07-30T01:06:00;69.37;;;7.03;;
805;SDS011;385;48.502;9.230;2022-07-30T01:08:27;60.93;;;7.00;;
805;SDS011;385;48.502;9.230;2022-07-30T01:10:54;67.23;;;7.17;;
805;SDS011;385;48.502;9.230;2022-07-30T01:13:21;68.70;;;7.37;;
805;SDS011;385;48.502;9.230;2022-07-30T01:15:48;67.07;;;7.20;;
805;SDS011;385;48.502;9.230;2022-07-30T01:18:16;87.67;;;8.33;;
805;SDS011;385;48.502;9.230;2022-07-30T01:20:47;63.13;;;7.20;;
805;SDS011;385;48.502;9.230;2022-07-30T01:23:17;69.77;;;6.80;;
805;SDS011;385;48.502;9.230;2022-07-30T01:25:52;58.83;;;6.93;;
805;SDS011;385;48.502;9.230;2022-07-30T01:28:22;64.87;;;7.33;;
805;SDS011;385;48.502;9.230;2022-07-30T01:30:50;68.83;;;7.50;;
805;SDS011;385;48.502;9.230;2022-07-30T01:33:18;60.17;;;6.83;;
805;SDS011;385;48.502;9.230;2022-07-30T01:35:46;64.93;;;7.37;;
805;SDS011;385;48.502;9.230;2022-07-30T01:38:14;84.57;;;8.63;;
805;SDS011;385;48.502;9.230;2022-07-30T01:40:45;71.43;;;7.30;;
805;SDS011;385;48.502;9.230;2022-07-30T01:43:15;87.17;;;8.33;;
805;SDS011;385;48.502;9.230;2022-07-30T01:45:43;78.07;;;7.87;;
805;SDS011;385;48.502;9.230;2022-07-30T01:48:12;75.03;;;7.70;;
805;SDS011;385;48.502;9.230;2022-07-30T01:50:41;76.97;;;8.00;;
805;SDS011;385;48.502;9.230;2022-07-30T01:53:10;85.20;;;8.00;;
805;SDS011;385;48.502;9.230;2022-07-30T01:55:40;67.90;;;7.50;;
805;SDS011;385;48.502;9.230;2022-07-30T01:58:08;53.00;;;6.93;;
805;SDS011;385;48.502;9.230;2022-07-30T02:00:38;50.67;;;7.13;;
805;SDS011;385;48.502;9.230;2022-07-30T02:03:05;75.60;;;8.00;;
805;SDS011;385;48.502;9.230;2022-07-30T02:05:33;70.87;;;7.90;;
805;SDS011;385;48.502;9.230;2022-07-30T02:08:02;70.13;;;7.53;;
805;SDS011;385;48.502;9.230;2022-07-30T02:10:32;59.67;;;7.87;;
805;SDS011;385;48.502;9.230;2022-07-30T02:13:01;48.83;;;7.00;;
805;SDS011;385;48.502;9.230;2022-07-30T02:15:31;60.17;;;7.00;;
805;SDS011;385;48.502;9.230;2022-07-30T02:18:01;94.03;;;8.67;;
805;SDS011;385;48.502;9.230;2022-07-30T02:20:29;81.47;;;8.37;;
805;SDS011;385;48.502;9.230;2022-07-30T02:23:01;65.57;;;7.63;;
805;SDS011;385;48.502;9.230;2022-07-30T02:25:29;68.43;;;7.77;;
805;SDS011;385;48.502;9.230;2022-07-30T02:27:59;59.93;;;7.47;;
805;SDS011;385;48.502;9.230;2022-07-30T02:30:29;75.13;;;7.57;;
805;SDS011;385;48.502;9.230;2022-07-30T02:32:58;54.33;;;7.00;;
805;SDS011;385;48.502;9.230;2022-07-30T02:35:28;60.17;;;7.20;;
805;SDS011;385;48.502;9.230;2022-07-30T02:37:55;49.70;;;7.37;;
805;SDS011;385;48.502;9.230;2022-07-30T02:40:23;64.80;;;7.33;;
805;SDS011;385;48.502;9.230;2022-07-30T02:42:51;54.83;;;7.03;;
805;SDS011;385;48.502;9.230;2022-07-30T02:45:19;60.57;;;7.93;;
805;SDS011;385;48.502;9.230;2022-07-30T02:47:47;79.90;;;8.17;;
805;SDS011;385;48.502;9.230;2022-07-30T02:50:17;58.57;;;7.70;;
805;SDS011;385;48.502;9.230;2022-07-30T02:52:46;67.63;;;7.70;;
805;SDS011;385;48.502;9.230;2022-07-30T02:55:13;78.50;;;8.60;;
805;SDS011;385;48.502;9.230;2022-07-30T02:57:42;69.70;;;8.13;;
805;SDS011;385;48.502;9.230;2022-07-30T03:00:10;63.03;;;7.20;;
805;SDS011;385;48.502;9.230;2022-07-30T03:02:38;55.97;;;7.70;;
805;SDS011;385;48.502;9.230;2022-07-30T03:05:06;51.30;;;7.40;;
805;SDS011;385;48.502;9.230;2022-07-30T03:07:34;82.27;;;9.27;;
805;SDS011;385;48.502;9.230;2022-07-30T03:10:03;62.30;;;7.53;;
805;SDS011;385;48.502;9.230;2022-07-30T03:12:31;59.37;;;7.50;;
805;SDS011;385;48.502;9.230;2022-07-30T03:14:59;58.60;;;7.90;;
805;SDS011;385;48.502;9.230;2022-07-30T03:17:27;58.03;;;7.40;;
805;SDS011;385;48.502;9.230;2022-07-30T03:19:55;52.57;;;7.50;;
805;SDS011;385;48.502;9.230;2022-07-30T03:22:23;70.57;;;8.53;;
805;SDS011;385;48.502;9.230;2022-07-30T03:24:52;67.93;;;8.27;;
805;SDS011;385;48.502;9.230;2022-07-30T03:27:21;68.00;;;8.30;;
805;SDS011;385;48.502;9.230;2022-07-30T03:29:48;56.60;;;7.70;;
805;SDS011;385;48.502;9.230;2022-07-30T03:32:18;56.20;;;7.80;;
805;SDS011;385;48.502;9.230;2022-07-30T03:34:45;56.47;;;7.77;;
805;SDS011;385;48.502;9.230;2022-07-30T03:37:13;63.70;;;8.83;;
805;SDS011;385;48.502;9.230;2022-07-30T03:39:40;48.00;;;8.20;;
805;SDS011;385;48.502;9.230;2022-07-30T03:42:07;50.63;;;8.00;;
805;SDS011;385;48.502;9.230;2022-07-30T03:44:36;46.97;;;7.77;;
805;SDS011;385;48.502;9.230;2022-07-30T03:47:04;46.57;;;8.17;;
805;SDS011;385;48.502;9.230;2022-07-30T03:49:31;54.83;;;8.00;;
805;SDS011;385;48.502;9.230;2022-07-30T03:51:59;80.33;;;9.00;;
805;SDS011;385;48.502;9.230;2022-07-30T03:54:28;59.30;;;8.03;;
805;SDS011;385;48.502;9.230;2022-07-30T03:56:57;55.77;;;8.43;;
805;SDS011;385;48.502;9.230;2022-07-30T03:59:25;54.63;;;8.00;;
805;SDS011;385;48.502;9.230;2022-07-30T04:01:53;61.10;;;8.17;;
805;SDS011;385;48.502;9.230;2022-07-30T04:04:21;59.87;;;8.33;;
805;SDS011;385;48.502;9.230;2022-07-30T04:06:48;53.57;;;8.73;;
805;SDS011;385;48.502;9.230;2022-07-30T04:09:15;65.07;;;8.70;;
805;SDS011;385;48.502;9.230;2022-07-30T04:11:42;55.73;;;8.80;;
805;SDS011;385;48.502;9.230;2022-07-30T04:14:09;54.07;;;8.53;;
805;SDS011;385;48.502;9.230;2022-07-30T04:16:38;48.27;;;7.93;;
805;SDS011;385;48.502;9.230;2022-07-30T04:19:09;81.03;;;9.53;;
805;SDS011;385;48.502;9.230;2022-07-30T04:21:38;59.00;;;8.73;;
805;SDS011;385;48.502;9.230;2022-07-30T04:24:06;60.93;;;8.87;;
805;SDS011;385;48.502;9.230;2022-07-30T04:26:35;52.57;;;8.70;;
805;SDS011;385;48.502;9.230;2022-07-30T04:29:03;50.17;;;7.70;;
805;SDS011;385;48.502;9.230;2022-07-30T04:31:31;54.83;;;7.80;;
805;SDS011;385;48.502;9.230;2022-07-30T04:33:59;53.03;;;7.20;;
805;SDS011;385;48.502;9.230;2022-07-30T04:36:28;53.77;;;6.90;;
805;SDS011;385;48.502;9.230;2022-07-30T04:38:55;59.93;;;7.87;;
805;SDS011;385;48.502;9.230;2022-07-30T04:41:22;44.93;;;6.80;;
805;SDS011;385;48.502;9.230;2022-07-30T04:43:49;46.87;;;7.60;;
805;SDS011;385;48.502;9.230;2022-07-30T04:46:17;88.07;;;8.83;;
805;SDS011;385;48.502;9.230;2022-07-30T04:48:44;49.73;;;7.00;;
805;SDS011;385;48.502;9.230;2022-07-30T04:51:12;59.90;;;7.20;;
805;SDS011;385;48.502;9.230;2022-07-30T04:53:40;56.67;;;6.87;;
805;SDS011;385;48.502;9.230;2022-07-30T04:56:08;48.00;;;6.77;;
805;SDS011;385;48.502;9.230;2022-07-30T04:58:36;46.83;;;6.60;;
805;SDS011;385;48.502;9.230;2022-07-30T05:01:05;57.43;;;7.23;;
805;SDS011;385;48.502;9.230;2022-07-30T05:03:32;48.00;;;6.93;;
805;SDS011;385;48.502;9.230;2022-07-30T05:06:00;67.33;;;7.47;;
805;SDS011;385;48.502;9.230;2022-07-30T05:08:28;56.83;;;7.20;;
805;SDS011;385;48.502;9.230;2022-07-30T05:10:56;62.93;;;7.17;;
805;SDS011;385;48.502;9.230;2022-07-30T05:13:24;72.90;;;7.53;;
805;SDS011;385;48.502;9.230;2022-07-30T05:15:51;72.33;;;7.50;;
805;SDS011;385;48.502;9.230;2022-07-30T05:18:18;66.23;;;7.20;;
805;SDS011;385;48.502;9.230;2022-07-30T05:20:45;59.03;;;7.13;;
805;SDS011;385;48.502;9.230;2022-07-30T05:23:12;50.13;;;6.90;;
805;SDS011;385;48.502;9.230;2022-07-30T05:25:39;68.60;;;7.30;;
805;SDS011;385;48.502;9.230;2022-07-30T05:28:09;69.00;;;7.60;;
805;SDS011;385;48.502;9.230;2022-07-30T05:30:36;70.10;;;7.90;;
805;SDS011;385;48.502;9.230;2022-07-30T05:33:03;75.13;;;7.27;;
805;SDS011;385;48.502;9.230;2022-07-30T05:35:30;67.93;;;7.90;;
805;SDS011;385;48.502;9.230;2022-07-30T05:37:57;74.33;;;7.90;;
805;SDS011;385;48.502;9.230;2022-07-30T05:40:24;81.77;;;8.33;;
805;SDS011;385;48.502;9.230;2022-07-30T05:42:52;76.97;;;8.37;;
805;SDS011;385;48.502;9.230;2022-07-30T05:45:20;65.63;;;7.70;;
805;SDS011;385;48.502;9.230;2022-07-30T05:47:47;62.93;;;7.67;;
805;SDS011;385;48.502;9.230;2022-07-30T05:50:14;75.27;;;8.00;;
805;SDS011;385;48.502;9.230;2022-07-30T05:52:41;61.33;;;7.40;;
805;SDS011;385;48.502;9.230;2022-07-30T05:55:09;110.43;;;9.17;;
805;SDS011;385;48.502;9.230;2022-07-30T05:57:36;56.03;;;6.80;;
805;SDS011;385;48.502;9.230;2022-07-30T06:00:06;60.97;;;7.40;;
805;SDS011;385;48.502;9.230;2022-07-30T06:02:35;88.20;;;8.70;;
805;SDS011;385;48.502;9.230;2022-07-30T06:05:03;56.77;;;7.23;;
805;SDS011;385;48.502;9.230;2022-07-30T06:07:30;60.47;;;7.13;;
805;SDS011;385;48.502;9.230;2022-07-30T06:09:57;68.40;;;7.83;;
805;SDS011;385;48.502;9.230;2022-07-30T06:12:25;57.63;;;6.63;;
805;SDS011;385;48.502;9.230;2022-07-30T06:14:52;63.03;;;6.93;;
805;SDS011;385;48.502;9.230;2022-07-30T06:17:19;69.73;;;7.63;;
805;SDS011;385;48.502;9.230;2022-07-30T06:19:48;73.67;;;8.13;;
805;SDS011;385;48.502;9.230;2022-07-30T06:22:17;60.60;;;7.40;;
805;SDS011;385;48.502;9.230;2022-07-30T06:24:44;70.57;;;8.17;;
805;SDS011;385;48.502;9.230;2022-07-30T06:27:11;65.97;;;8.03;;
805;SDS011;385;48.502;9.230;2022-07-30T06:29:38;71.17;;;7.97;;
805;SDS011;385;48.502;9.230;2022-07-30T06:32:05;74.50;;;8.63;;
805;SDS011;385;48.502;9.230;2022-07-30T06:34:32;64.77;;;7.00;;
805;SDS011;385;48.502;9.230;2022-07-30T06:37:01;61.97;;;7.57;;
805;SDS011;385;48.502;9.230;2022-07-30T06:39:28;64.50;;;7.83;;
805;SDS011;385;48.502;9.230;2022-07-30T06:41:55;55.73;;;7.20;;
805;SDS011;385;48.502;9.230;2022-07-30T06:44:22;60.10;;;8.13;;
805;SDS011;385;48.502;9.230;2022-07-30T06:46:49;71.93;;;8.23;;
805;SDS011;385;48.502;9.230;2022-07-30T06:49:16;57.63;;;7.53;;
805;SDS011;385;48.502;9.230;2022-07-30T06:51:43;63.17;;;8.10;;
805;SDS011;385;48.502;9.230;2022-07-30T06:54:12;52.53;;;7.97;;
805;SDS011;385;48.502;9.230;2022-07-30T06:56:39;72.93;;;7.93;;
805;SDS011;385;48.502;9.230;2022-07-30T06:59:06;110.97;;;10.00;;
805;SDS011;385;48.502;9.230;2022-07-30T07:01:33;74.93;;;8.33;;
805;SDS011;385;48.502;9.230;2022-07-30T07:04:00;68.03;;;8.50;;
805;SDS011;385;48.502;9.230;2022-07-30T07:06:28;61.03;;;9.00;;
805;SDS011;385;48.502;9.230;2022-07-30T07:08:55;74.50;;;8.53;;
805;SDS011;385;48.502;9.230;2022-07-30T07:11:27;98.57;;;10.13;;
805;SDS011;385;48.502;9.230;2022-07-30T07:13:54;96.17;;;9.70;;
805;SDS011;385;48.502;9.230;2022-07-30T07:16:22;93.97;;;10.57;;
805;SDS011;385;48.502;9.230;2022-07-30T07:18:50;69.07;;;9.50;;
805;SDS011;385;48.502;9.230;2022-07-30T07:21:17;64.70;;;8.60;;
805;SDS011;385;48.502;9.230;2022-07-30T07:23:44;82.63;;;10.30;;
805;SDS011;385;48.502;9.230;2022-07-30T07:26:12;84.53;;;9.80;;
805;SDS011;385;48.502;9.230;2022-07-30T07:28:41;87.20;;;9.13;;
805;SDS011;385;48.502;9.230;2022-07-30T07:31:08;98.00;;;10.17;;
805;SDS011;385;48.502;9.230;2022-07-30T07:33:35;85.73;;;9.93;;
805;SDS011;385;48.502;9.230;2022-07-30T07:36:03;80.10;;;10.27;;
805;SDS011;385;48.502;9.230;2022-07-30T07:38:30;77.80;;;9.93;;
805;SDS011;385;48.502;9.230;2022-07-30T07:40:58;74.83;;;8.93;;
805;SDS011;385;48.502;9.230;2022-07-30T07:43:25;69.93;;;8.33;;
805;SDS011;385;48.502;9.230;2022-07-30T07:45:54;73.57;;;9.20;;
805;SDS011;385;48.502;9.230;2022-07-30T07:48:21;82.57;;;9.80;;
805;SDS011;385;48.502;9.230;2022-07-30T07:50:48;94.23;;;9.47;;
805;SDS011;385;48.502;9.230;2022-07-30T07:53:15;90.47;;;9.60;;
805;SDS011;385;48.502;9.230;2022-07-30T07:55:42;78.27;;;8.73;;
805;SDS011;385;48.502;9.230;2022-07-30T07:58:09;72.13;;;8.53;;
805;SDS011;385;48.502;9.230;2022-07-30T08:00:37;77.10;;;9.03;;
805;SDS011;385;48.502;9.230;2022-07-30T08:03:06;73.27;;;9.00;;
805;SDS011;385;48.502;9.230;2022-07-30T08:05:33;84.97;;;8.40;;
805;SDS011;385;48.502;9.230;2022-07-30T08:08:00;77.10;;;8.87;;
805;SDS011;385;48.502;9.230;2022-07-30T08:10:27;74.33;;;9.20;;
805;SDS011;385;48.502;9.230;2022-07-30T08:12:54;82.20;;;8.70;;
805;SDS011;385;48.502;9.230;2022-07-30T08:15:21;105.20;;;9.03;;
805;SDS011;385;48.502;9.230;2022-07-30T08:17:49;82.90;;;9.30;;
805;SDS011;385;48.502;9.230;2022-07-30T08:20:17;74.67;;;8.30;;
805;SDS011;385;48.502;9.230;2022-07-30T08:22:46;78.40;;;8.57;;
805;SDS011;385;48.502;9.230;2022-07-30T08:25:13;138.20;;;12.10;;
805;SDS011;385;48.502;9.230;2022-07-30T08:27:40;78.03;;;9.37;;
805;SDS011;385;48.502;9.230;2022-07-30T08:30:10;64.40;;;8.43;;
805;SDS011;385;48.502;9.230;2022-07-30T08:32:37;80.43;;;9.53;;
805;SDS011;385;48.502;9.230;2022-07-30T08:35:05;67.30;;;8.50;;
805;SDS011;385;48.502;9.230;2022-07-30T08:37:33;58.73;;;7.93;;
805;SDS011;385;48.502;9.230;2022-07-30T08:40:01;73.33;;;8.27;;
805;SDS011;385;48.502;9.230;2022-07-30T08:42:28;77.80;;;9.03;;
805;SDS011;385;48.502;9.230;2022-07-30T08:44:55;69.00;;;8.23;;
805;SDS011;385;48.502;9.230;2022-07-30T08:47:25;54.37;;;7.10;;
805;SDS011;385;48.502;9.230;2022-07-30T08:49:53;57.53;;;7.53;;
805;SDS011;385;48.502;9.230;2022-07-30T08:52:25;69.43;;;7.77;;
805;SDS011;385;48.502;9.230;2022-07-30T08:54:54;83.13;;;8.10;;
805;SDS011;385;48.502;9.230;2022-07-30T08:57:21;67.50;;;6.63;;
805;SDS011;385;48.502;9.230;2022-07-30T08:59:48;70.57;;;7.97;;
805;SDS011;385;48.502;9.230;2022-07-30T09:02:16;64.77;;;7.57;;
805;SDS011;385;48.502;9.230;2022-07-30T09:04:43;72.17;;;8.10;;
805;SDS011;385;48.502;9.230;2022-07-30T09:07:10;73.17;;;7.80;;
805;SDS011;385;48.502;9.230;2022-07-30T09:09:37;73.03;;;7.50;;
805;SDS011;385;48.502;9.230;2022-07-30T09:14:50;81.50;;;7.83;;
805;SDS011;385;48.502;9.230;2022-07-30T09:17:26;68.40;;;7.10;;
805;SDS011;385;48.502;9.230;2022-07-30T09:20:00;70.30;;;7.17;;
805;SDS011;385;48.502;9.230;2022-07-30T09:22:39;64.93;;;6.90;;
805;SDS011;385;48.502;9.230;2022-07-30T09:25:07;71.37;;;6.90;;
805;SDS011;385;48.502;9.230;2022-07-30T09:27:42;71.37;;;7.20;;
805;SDS011;385;48.502;9.230;2022-07-30T09:30:11;83.87;;;7.30;;
805;SDS011;385;48.502;9.230;2022-07-30T09:32:47;78.87;;;7.57;;
805;SDS011;385;48.502;9.230;2022-07-30T09:35:15;84.67;;;7.63;;
805;SDS011;385;48.502;9.230;2022-07-30T09:37:43;78.87;;;7.10;;
805;SDS011;385;48.502;9.230;2022-07-30T09:40:11;68.63;;;6.50;;
805;SDS011;385;48.502;9.230;2022-07-30T09:42:38;69.03;;;6.97;;
805;SDS011;385;48.502;9.230;2022-07-30T09:45:05;69.03;;;6.17;;
805;SDS011;385;48.502;9.230;2022-07-30T09:47:35;66.83;;;6.47;;
805;SDS011;385;48.502;9.230;2022-07-30T09:50:03;74.10;;;7.03;;
805;SDS011;385;48.502;9.230;2022-07-30T09:52:30;71.77;;;6.73;;
805;SDS011;385;48.502;9.230;2022-07-30T09:54:58;60.23;;;6.07;;
805;SDS011;385;48.502;9.230;2022-07-30T09:57:25;72.73;;;7.00;;
805;SDS011;385;48.502;9.230;2022-07-30T09:59:52;77.03;;;6.87;;
805;SDS011;385;48.502;9.230;2022-07-30T10:02:19;97.87;;;7.67;;
805;SDS011;385;48.502;9.230;2022-07-30T10:04:48;71.50;;;6.20;;
805;SDS011;385;48.502;9.230;2022-07-30T10:07:16;79.30;;;6.80;;
805;SDS011;385;48.502;9.230;2022-07-30T10:09:43;77.27;;;6.47;;
805;SDS011;385;48.502;9.230;2022-07-30T10:12:13;101.40;;;7.73;;
805;SDS011;385;48.502;9.230;2022-07-30T10:14:41;85.63;;;6.87;;
805;SDS011;385;48.502;9.230;2022-07-30T10:17:09;86.27;;;6.87;;
805;SDS011;385;48.502;9.230;2022-07-30T10:19:36;82.43;;;6.70;;
805;SDS011;385;48.502;9.230;2022-07-30T10:22:04;77.63;;;6.30;;
805;SDS011;385;48.502;9.230;2022-07-30T10:24:32;68.97;;;5.83;;
805;SDS011;385;48.502;9.230;2022-07-30T10:27:00;79.70;;;6.60;;
805;SDS011;385;48.502;9.230;2022-07-30T10:29:28;86.37;;;6.73;;
805;SDS011;385;48.502;9.230;2022-07-30T10:31:55;78.57;;;6.27;;
805;SDS011;385;48.502;9.230;2022-07-30T10:34:22;99.07;;;7.43;;
805;SDS011;385;48.502;9.230;2022-07-30T10:36:51;85.30;;;6.60;;
805;SDS011;385;48.502;9.230;2022-07-30T10:39:23;85.23;;;6.90;;
805;SDS011;385;48.502;9.230;2022-07-30T10:41:55;109.23;;;7.60;;
805;SDS011;385;48.502;9.230;2022-07-30T10:47:26;73.67;;;6.63;;
805;SDS011;385;48.502;9.230;2022-07-30T10:50:03;77.20;;;6.80;;
805;SDS011;385;48.502;9.230;2022-07-30T10:52:47;74.23;;;6.33;;
805;SDS011;385;48.502;9.230;2022-07-30T10:55:19;87.70;;;6.93;;
805;SDS011;385;48.502;9.230;2022-07-30T10:57:56;72.93;;;6.73;;
805;SDS011;385;48.502;9.230;2022-07-30T11:00:24;77.30;;;6.37;;
805;SDS011;385;48.502;9.230;2022-07-30T11:05:42;80.77;;;6.40;;
805;SDS011;385;48.502;9.230;2022-07-30T11:10:59;77.70;;;6.60;;
805;SDS011;385;48.502;9.230;2022-07-30T11:16:12;65.20;;;6.00;;
805;SDS011;385;48.502;9.230;2022-07-30T11:21:23;68.07;;;5.90;;
805;SDS011;385;48.502;9.230;2022-07-30T11:23:50;72.13;;;6.20;;
805;SDS011;385;48.502;9.230;2022-07-30T11:29:04;80.47;;;6.47;;
805;SDS011;385;48.502;9.230;2022-07-30T11:31:32;87.80;;;6.40;;
805;SDS011;385;48.502;9.230;2022-07-30T11:37:05;77.10;;;6.00;;
805;SDS011;385;48.502;9.230;2022-07-30T11:42:36;79.60;;;6.20;;
805;SDS011;385;48.502;9.230;2022-07-30T11:45:24;83.60;;;6.70;;
805;SDS011;385;48.502;9.230;2022-07-30T11:47:54;70.17;;;6.23;;
805;SDS011;385;48.502;9.230;2022-07-30T11:50:22;76.77;;;5.60;;
805;SDS011;385;48.502;9.230;2022-07-30T11:52:49;62.13;;;5.37;;
805;SDS011;385;48.502;9.230;2022-07-30T11:55:21;69.47;;;5.73;;
805;SDS011;385;48.502;9.230;2022-07-30T11:57:49;72.93;;;6.20;;
805;SDS011;385;48.502;9.230;2022-07-30T12:00:16;80.33;;;6.37;;
805;SDS011;385;48.502;9.230;2022-07-30T12:02:45;84.47;;;6.50;;
805;SDS011;385;48.502;9.230;2022-07-30T12:05:12;82.07;;;6.63;;
805;SDS011;385;48.502;9.230;2022-07-30T12:07:39;84.60;;;6.80;;
805;SDS011;385;48.502;9.230;2022-07-30T12:10:16;75.13;;;6.17;;
805;SDS011;385;48.502;9.230;2022-07-30T12:12:44;77.07;;;6.30;;
805;SDS011;385;48.502;9.230;2022-07-30T12:15:26;120.30;;;7.80;;
805;SDS011;385;48.502;9.230;2022-07-30T12:17:54;79.53;;;6.13;;
805;SDS011;385;48.502;9.230;2022-07-30T12:20:22;85.40;;;6.40;;
805;SDS011;385;48.502;9.230;2022-07-30T12:22:49;73.80;;;6.10;;
805;SDS011;385;48.502;9.230;2022-07-30T12:25:16;94.67;;;7.00;;
805;SDS011;385;48.502;9.230;2022-07-30T12:27:44;84.77;;;6.30;;
805;SDS011;385;48.502;9.230;2022-07-30T12:30:12;95.80;;;6.70;;
805;SDS011;385;48.502;9.230;2022-07-30T12:32:40;78.93;;;6.27;;
805;SDS011;385;48.502;9.230;2022-07-30T12:35:09;82.43;;;6.20;;
805;SDS011;385;48.502;9.230;2022-07-30T12:37:36;78.37;;;6.10;;
805;SDS011;385;48.502;9.230;2022-07-30T12:40:04;82.27;;;6.37;;
805;SDS011;385;48.502;9.230;2022-07-30T12:42:31;126.00;;;8.07;;
805;SDS011;385;48.502;9.230;2022-07-30T12:44:58;207.27;;;11.30;;
805;SDS011;385;48.502;9.230;2022-07-30T12:47:26;100.20;;;6.63;;
805;SDS011;385;48.502;9.230;2022-07-30T12:49:54;78.03;;;6.33;;
805;SDS011;385;48.502;9.230;2022-07-30T12:52:24;125.40;;;8.10;;
805;SDS011;385;48.502;9.230;2022-07-30T12:55:02;112.10;;;7.07;;
805;SDS011;385;48.502;9.230;2022-07-30T13:00:11;139.10;;;8.90;;
805;SDS011;385;48.502;9.230;2022-07-30T13:02:39;89.97;;;6.70;;
805;SDS011;385;48.502;9.230;2022-07-30T13:05:06;108.80;;;7.47;;
805;SDS011;385;48.502;9.230;2022-07-30T13:07:35;84.47;;;6.23;;
805;SDS011;385;48.502;9.230;2022-07-30T13:10:17;114.90;;;7.60;;
805;SDS011;385;48.502;9.230;2022-07-30T13:12:44;113.73;;;7.97;;
805;SDS011;385;48.502;9.230;2022-07-30T13:15:15;109.17;;;7.77;;
805;SDS011;385;48.502;9.230;2022-07-30T13:17:42;89.83;;;6.80;;
805;SDS011;385;48.502;9.230;2022-07-30T13:20:10;94.90;;;6.47;;
805;SDS011;385;48.502;9.230;2022-07-30T13:22:39;155.83;;;8.90;;
805;SDS011;385;48.502;9.230;2022-07-30T13:25:07;121.70;;;7.77;;
805;SDS011;385;48.502;9.230;2022-07-30T13:27:34;158.53;;;9.00;;
805;SDS011;385;48.502;9.230;2022-07-30T13:30:01;86.63;;;6.10;;
805;SDS011;385;48.502;9.230;2022-07-30T13:32:29;99.43;;;6.47;;
805;SDS011;385;48.502;9.230;2022-07-30T13:34:56;94.37;;;6.93;;
805;SDS011;385;48.502;9.230;2022-07-30T13:37:24;61.83;;;5.10;;
805;SDS011;385;48.502;9.230;2022-07-30T13:39:55;85.27;;;5.90;;
805;SDS011;385;48.502;9.230;2022-07-30T13:42:22;121.03;;;7.53;;
805;SDS011;385;48.502;9.230;2022-07-30T13:44:49;84.33;;;6.57;;
805;SDS011;385;48.502;9.230;2022-07-30T13:47:16;107.13;;;7.63;;
805;SDS011;385;48.502;9.230;2022-07-30T13:49:43;84.97;;;6.17;;
805;SDS011;385;48.502;9.230;2022-07-30T13:52:13;75.87;;;5.43;;
805;SDS011;385;48.502;9.230;2022-07-30T13:54:40;82.27;;;6.30;;
805;SDS011;385;48.502;9.230;2022-07-30T13:57:09;87.63;;;6.23;;
805;SDS011;385;48.502;9.230;2022-07-30T13:59:36;97.07;;;6.77;;
805;SDS011;385;48.502;9.230;2022-07-30T14:02:03;87.63;;;6.27;;
805;SDS011;385;48.502;9.230;2022-07-30T14:04:30;109.57;;;7.20;;
805;SDS011;385;48.502;9.230;2022-07-30T14:06:57;94.47;;;6.90;;
805;SDS011;385;48.502;9.230;2022-07-30T14:09:24;100.10;;;7.27;;
805;SDS011;385;48.502;9.230;2022-07-30T14:11:51;123.53;;;7.80;;
805;SDS011;385;48.502;9.230;2022-07-30T14:14:20;97.23;;;7.00;;
805;SDS011;385;48.502;9.230;2022-07-30T14:16:47;128.17;;;8.27;;
805;SDS011;385;48.502;9.230;2022-07-30T14:19:16;125.90;;;7.80;;
805;SDS011;385;48.502;9.230;2022-07-30T14:21:44;119.67;;;7.87;;
805;SDS011;385;48.502;9.230;2022-07-30T14:24:11;132.43;;;8.80;;
805;SDS011;385;48.502;9.230;2022-07-30T14:26:40;116.03;;;7.97;;
805;SDS011;385;48.502;9.230;2022-07-30T14:29:07;92.30;;;6.30;;
805;SDS011;385;48.502;9.230;2022-07-30T14:31:35;148.30;;;9.53;;
805;SDS011;385;48.502;9.230;2022-07-30T14:34:03;138.03;;;8.60;;
805;SDS011;385;48.502;9.230;2022-07-30T14:36:30;90.20;;;6.80;;
805;SDS011;385;48.502;9.230;2022-07-30T14:38:57;101.30;;;6.90;;
805;SDS011;385;48.502;9.230;2022-07-30T14:41:26;123.63;;;7.73;;
805;SDS011;385;48.502;9.230;2022-07-30T14:43:53;96.23;;;7.07;;
805;SDS011;385;48.502;9.230;2022-07-30T14:46:20;109.90;;;7.30;;
805;SDS011;385;48.502;9.230;2022-07-30T14:48:49;149.23;;;9.07;;
805;SDS011;385;48.502;9.230;2022-07-30T14:51:16;97.83;;;6.97;;
805;SDS011;385;48.502;9.230;2022-07-30T14:53:43;94.43;;;6.87;;
805;SDS011;385;48.502;9.230;2022-07-30T14:56:10;112.73;;;7.50;;
805;SDS011;385;48.502;9.230;2022-07-30T14:58:38;142.33;;;8.50;;
805;SDS011;385;48.502;9.230;2022-07-30T15:01:05;163.37;;;9.73;;
805;SDS011;385;48.502;9.230;2022-07-30T15:03:32;107.83;;;7.40;;
805;SDS011;385;48.502;9.230;2022-07-30T15:06:01;92.60;;;7.00;;
805;SDS011;385;48.502;9.230;2022-07-30T15:08:28;97.90;;;8.30;;
805;SDS011;385;48.502;9.230;2022-07-30T15:10:56;127.07;;;8.57;;
805;SDS011;385;48.502;9.230;2022-07-30T15:13:23;115.43;;;7.77;;
805;SDS011;385;48.502;9.230;2022-07-30T15:15:50;119.37;;;7.50;;
805;SDS011;385;48.502;9.230;2022-07-30T15:18:17;96.57;;;7.10;;
805;SDS011;385;48.502;9.230;2022-07-30T15:20:44;77.27;;;5.70;;
805;SDS011;385;48.502;9.230;2022-07-30T15:23:12;140.10;;;8.60;;
805;SDS011;385;48.502;9.230;2022-07-30T15:25:40;101.53;;;7.83;;
805;SDS011;385;48.502;9.230;2022-07-30T15:28:07;93.93;;;6.77;;
805;SDS011;385;48.502;9.230;2022-07-30T15:30:35;116.53;;;7.60;;
805;SDS011;385;48.502;9.230;2022-07-30T15:33:02;126.47;;;8.33;;
805;SDS011;385;48.502;9.230;2022-07-30T15:35:29;112.03;;;7.40;;
805;SDS011;385;48.502;9.230;2022-07-30T15:37:57;91.07;;;6.77;;
805;SDS011;385;48.502;9.230;2022-07-30T15:40:25;131.20;;;8.07;;
805;SDS011;385;48.502;9.230;2022-07-30T15:42:52;90.43;;;6.77;;
805;SDS011;385;48.502;9.230;2022-07-30T15:45:19;114.47;;;7.40;;
805;SDS011;385;48.502;9.230;2022-07-30T15:47:49;144.10;;;8.70;;
805;SDS011;385;48.502;9.230;2022-07-30T15:50:16;87.67;;;6.23;;
805;SDS011;385;48.502;9.230;2022-07-30T15:52:43;98.43;;;6.80;;
805;SDS011;385;48.502;9.230;2022-07-30T15:55:10;156.40;;;8.40;;
805;SDS011;385;48.502;9.230;2022-07-30T15:57:39;150.37;;;8.77;;
805;SDS011;385;48.502;9.230;2022-07-30T16:00:07;119.93;;;7.33;;
805;SDS011;385;48.502;9.230;2022-07-30T16:02:35;144.70;;;8.80;;